Terminal Aerodrome Forecast
Issued by NWS Mobile, AL

Home | Current Version | Previous Version | Text Only | Print | Product List | Glossary On
Versions: 1 2 3 4 5 6 7 8 9 10 11 12 13 14 15
000
FTUS44 KMOB 031604 AAA
TAFPNS
TAF AMD
KPNS 031604Z 0316/0412 08005KT P6SM OVC090
     FM031700 08015G22KT P6SM VCSH BKN070 OVC100
     FM040600 09011KT 5SM -RA OVC015=

USA.gov is the U.S. government's official web portal to all federal, state and local government web resources and services.